sensor_id;sensor_type;location;lat;lon;timestamp;pressure;altitude;pressure_sealevel;temperature;humidity
27425;BME280;15244;49.088;11.886;2023-05-01T00:04:09;95852.22;;;14.30;38.47
27425;BME280;15244;49.088;11.886;2023-05-01T00:09:11;95838.91;;;14.25;38.34
27425;BME280;15244;49.088;11.886;2023-05-01T00:14:21;95833.84;;;14.20;38.53
27425;BME280;15244;49.088;11.886;2023-05-01T00:19:26;95828.41;;;14.17;38.48
27425;BME280;15244;49.088;11.886;2023-05-01T00:24:28;95822.97;;;14.13;38.70
27425;BME280;15244;49.088;11.886;2023-05-01T00:29:29;95831.22;;;14.09;38.95
27425;BME280;15244;49.088;11.886;2023-05-01T00:34:31;95824.56;;;14.07;38.94
27425;BME280;15244;49.088;11.886;2023-05-01T00:39:32;95811.72;;;14.00;39.20
27425;BME280;15244;49.088;11.886;2023-05-01T00:44:34;95813.31;;;13.98;38.84
27425;BME280;15244;49.088;11.886;2023-05-01T00:49:36;95807.06;;;13.94;39.13
27425;BME280;15244;49.088;11.886;2023-05-01T00:54:42;95805.91;;;13.91;39.26
27425;BME280;15244;49.088;11.886;2023-05-01T00:59:51;95798.13;;;13.86;39.07
27425;BME280;15244;49.088;11.886;2023-05-01T01:04:56;95789.13;;;13.82;39.14
27425;BME280;15244;49.088;11.886;2023-05-01T01:10:04;95785.22;;;13.79;39.21
27425;BME280;15244;49.088;11.886;2023-05-01T01:15:20;95775.47;;;13.75;39.23
27425;BME280;15244;49.088;11.886;2023-05-01T01:20:37;95771.63;;;13.69;39.15
27425;BME280;15244;49.088;11.886;2023-05-01T01:25:58;95763.81;;;13.63;39.38
27425;BME280;15244;49.088;11.886;2023-05-01T01:36:31;95759.53;;;13.59;39.33
27425;BME280;15244;49.088;11.886;2023-05-01T01:41:36;95760.34;;;13.56;39.44
27425;BME280;15244;49.088;11.886;2023-05-01T01:46:40;95751.38;;;13.52;39.58
27425;BME280;15244;49.088;11.886;2023-05-01T01:51:44;95751.41;;;13.48;39.63
27425;BME280;15244;49.088;11.886;2023-05-01T01:56:49;95736.19;;;13.43;39.62
27425;BME280;15244;49.088;11.886;2023-05-01T02:01:52;95741.69;;;13.40;39.61
27425;BME280;15244;49.088;11.886;2023-05-01T02:06:56;95740.16;;;13.35;39.53
27425;BME280;15244;49.088;11.886;2023-05-01T02:11:59;95742.13;;;13.31;39.89
27425;BME280;15244;49.088;11.886;2023-05-01T02:17:07;95732.38;;;13.27;39.93
27425;BME280;15244;49.088;11.886;2023-05-01T02:22:13;95716.38;;;13.18;39.97
27425;BME280;15244;49.088;11.886;2023-05-01T02:27:25;95715.97;;;13.16;40.10
27425;BME280;15244;49.088;11.886;2023-05-01T02:32:31;95720.28;;;13.13;39.99
27425;BME280;15244;49.088;11.886;2023-05-01T02:37:33;95714.09;;;13.09;40.17
27425;BME280;15244;49.088;11.886;2023-05-01T02:42:37;95713.31;;;13.05;40.15
27425;BME280;15244;49.088;11.886;2023-05-01T02:47:40;95708.66;;;13.02;39.84
27425;BME280;15244;49.088;11.886;2023-05-01T02:52:43;95698.88;;;12.97;40.31
27425;BME280;15244;49.088;11.886;2023-05-01T02:58:02;95704.41;;;12.94;40.26
27425;BME280;15244;49.088;11.886;2023-05-01T03:03:04;95690.31;;;12.92;40.54
27425;BME280;15244;49.088;11.886;2023-05-01T03:08:09;95692.28;;;12.88;40.50
27425;BME280;15244;49.088;11.886;2023-05-01T03:13:12;95683.72;;;12.82;40.55
27425;BME280;15244;49.088;11.886;2023-05-01T03:18:14;95680.63;;;12.76;40.61
27425;BME280;15244;49.088;11.886;2023-05-01T03:23:15;95677.50;;;12.74;40.58
27425;BME280;15244;49.088;11.886;2023-05-01T03:28:17;95675.97;;;12.70;40.73
27425;BME280;15244;49.088;11.886;2023-05-01T03:33:19;95679.13;;;12.65;40.66
27425;BME280;15244;49.088;11.886;2023-05-01T03:38:21;95676.81;;;12.52;40.44
27425;BME280;15244;49.088;11.886;2023-05-01T03:43:43;95672.94;;;12.43;40.39
27425;BME280;15244;49.088;11.886;2023-05-01T03:49:01;95661.25;;;12.35;40.99
27425;BME280;15244;49.088;11.886;2023-05-01T03:54:07;95659.72;;;12.30;41.09
27425;BME280;15244;49.088;11.886;2023-05-01T03:59:26;95656.22;;;12.26;41.19
27425;BME280;15244;49.088;11.886;2023-05-01T04:04:28;95657.03;;;12.23;41.22
27425;BME280;15244;49.088;11.886;2023-05-01T04:09:31;95654.28;;;12.20;40.96
27425;BME280;15244;49.088;11.886;2023-05-01T04:14:33;95653.50;;;12.19;41.52
27425;BME280;15244;49.088;11.886;2023-05-01T04:19:38;95650.00;;;12.19;41.37
27425;BME280;15244;49.088;11.886;2023-05-01T04:24:41;95646.09;;;12.20;41.39
27425;BME280;15244;49.088;11.886;2023-05-01T04:29:43;95641.41;;;12.20;41.29
27425;BME280;15244;49.088;11.886;2023-05-01T04:34:45;95640.63;;;12.20;41.63
27425;BME280;15244;49.088;11.886;2023-05-01T04:39:47;95648.44;;;12.21;41.44
27425;BME280;15244;49.088;11.886;2023-05-01T04:44:50;95655.44;;;12.22;41.88
27425;BME280;15244;49.088;11.886;2023-05-01T04:49:56;95656.22;;;12.23;41.71
27425;BME280;15244;49.088;11.886;2023-05-01T04:55:07;95651.16;;;12.25;41.70
27425;BME280;15244;49.088;11.886;2023-05-01T05:00:30;95656.63;;;12.28;41.56
27425;BME280;15244;49.088;11.886;2023-05-01T05:05:32;95654.63;;;12.32;41.96
27425;BME280;15244;49.088;11.886;2023-05-01T05:10:37;95651.09;;;12.35;41.83
27425;BME280;15244;49.088;11.886;2023-05-01T05:15:51;95652.66;;;12.40;41.63
27425;BME280;15244;49.088;11.886;2023-05-01T05:20:56;95649.16;;;12.43;41.81
27425;BME280;15244;49.088;11.886;2023-05-01T05:26:00;95646.00;;;12.48;42.07
27425;BME280;15244;49.088;11.886;2023-05-01T05:31:05;95649.47;;;12.52;41.76
27425;BME280;15244;49.088;11.886;2023-05-01T05:36:11;95652.56;;;12.58;42.08
27425;BME280;15244;49.088;11.886;2023-05-01T05:41:17;95656.84;;;12.63;41.82
27425;BME280;15244;49.088;11.886;2023-05-01T05:46:21;95648.63;;;12.70;41.83
27425;BME280;15244;49.088;11.886;2023-05-01T05:51:25;95656.38;;;12.78;41.65
27425;BME280;15244;49.088;11.886;2023-05-01T05:56:27;95656.72;;;12.88;41.66
27425;BME280;15244;49.088;11.886;2023-05-01T06:01:29;95652.38;;;12.97;42.18
27425;BME280;15244;49.088;11.886;2023-05-01T06:06:33;95654.63;;;13.10;41.79
27425;BME280;15244;49.088;11.886;2023-05-01T06:11:40;95643.59;;;13.20;42.08
27425;BME280;15244;49.088;11.886;2023-05-01T06:16:46;95642.41;;;13.29;41.68
27425;BME280;15244;49.088;11.886;2023-05-01T06:21:47;95643.91;;;13.37;41.67
27425;BME280;15244;49.088;11.886;2023-05-01T06:26:50;95645.44;;;13.41;41.42
27425;BME280;15244;49.088;11.886;2023-05-01T06:31:55;95636.00;;;13.46;41.42
27425;BME280;15244;49.088;11.886;2023-05-01T06:36:57;95626.53;;;13.54;41.58
27425;BME280;15244;49.088;11.886;2023-05-01T06:41:59;95618.25;;;13.61;41.66
27425;BME280;15244;49.088;11.886;2023-05-01T06:47:13;95620.88;;;13.72;41.65
27425;BME280;15244;49.088;11.886;2023-05-01T06:52:17;95617.28;;;13.82;41.61
27425;BME280;15244;49.088;11.886;2023-05-01T06:57:22;95610.13;;;13.92;41.80
27425;BME280;15244;49.088;11.886;2023-05-01T07:02:24;95606.16;;;14.00;41.57
27425;BME280;15244;49.088;11.886;2023-05-01T07:07:29;95628.34;;;14.09;41.47
27425;BME280;15244;49.088;11.886;2023-05-01T07:12:32;95620.81;;;14.17;41.44
27425;BME280;15244;49.088;11.886;2023-05-01T07:17:34;95621.09;;;14.26;41.53
27425;BME280;15244;49.088;11.886;2023-05-01T07:22:36;95615.13;;;14.35;41.57
27425;BME280;15244;49.088;11.886;2023-05-01T07:27:39;95627.16;;;14.45;41.61
27425;BME280;15244;49.088;11.886;2023-05-01T07:32:43;95602.34;;;14.56;41.57
27425;BME280;15244;49.088;11.886;2023-05-01T07:37:51;95603.38;;;14.69;41.53
27425;BME280;15244;49.088;11.886;2023-05-01T07:42:52;95599.22;;;14.84;41.45
27425;BME280;15244;49.088;11.886;2023-05-01T07:47:56;95604.09;;;15.00;41.87
27425;BME280;15244;49.088;11.886;2023-05-01T07:53:00;95612.13;;;15.14;41.70
27425;BME280;15244;49.088;11.886;2023-05-01T07:58:06;95606.03;;;15.27;40.90
27425;BME280;15244;49.088;11.886;2023-05-01T08:03:08;95597.25;;;15.35;41.21
27425;BME280;15244;49.088;11.886;2023-05-01T08:08:16;95610.41;;;15.48;41.00
27425;BME280;15244;49.088;11.886;2023-05-01T08:13:24;95607.06;;;15.60;40.53
27425;BME280;15244;49.088;11.886;2023-05-01T08:18:31;95599.78;;;15.73;40.43
27425;BME280;15244;49.088;11.886;2023-05-01T08:23:36;95597.59;;;15.85;40.28
27425;BME280;15244;49.088;11.886;2023-05-01T08:28:46;95589.19;;;15.95;40.56
27425;BME280;15244;49.088;11.886;2023-05-01T08:33:52;95579.16;;;16.05;40.40
27425;BME280;15244;49.088;11.886;2023-05-01T08:39:00;95590.47;;;16.11;40.01
27425;BME280;15244;49.088;11.886;2023-05-01T08:44:07;95578.53;;;16.17;39.55
27425;BME280;15244;49.088;11.886;2023-05-01T08:49:16;95580.38;;;16.24;39.40
27425;BME280;15244;49.088;11.886;2023-05-01T08:54:23;95583.75;;;16.32;39.28
27425;BME280;15244;49.088;11.886;2023-05-01T08:59:33;95581.72;;;16.36;39.27
27425;BME280;15244;49.088;11.886;2023-05-01T09:04:40;95577.25;;;16.42;38.83
27425;BME280;15244;49.088;11.886;2023-05-01T09:09:48;95587.66;;;16.51;38.98
27425;BME280;15244;49.088;11.886;2023-05-01T09:14:55;95574.97;;;16.57;38.70
27425;BME280;15244;49.088;11.886;2023-05-01T09:20:04;95577.56;;;16.64;38.67
27425;BME280;15244;49.088;11.886;2023-05-01T09:25:11;95585.69;;;16.71;38.70
27425;BME280;15244;49.088;11.886;2023-05-01T09:30:37;95582.41;;;16.76;39.04
27425;BME280;15244;49.088;11.886;2023-05-01T09:35:50;95585.03;;;16.83;39.02
27425;BME280;15244;49.088;11.886;2023-05-01T09:41:03;95592.25;;;16.94;38.96
27425;BME280;15244;49.088;11.886;2023-05-01T09:46:09;95586.84;;;17.06;38.51
27425;BME280;15244;49.088;11.886;2023-05-01T09:51:26;95582.31;;;17.16;38.34
27425;BME280;15244;49.088;11.886;2023-05-01T09:56:45;95590.41;;;17.23;38.34
27425;BME280;15244;49.088;11.886;2023-05-01T10:01:51;95576.34;;;17.34;37.98
27425;BME280;15244;49.088;11.886;2023-05-01T10:07:13;95578.88;;;17.45;38.46
27425;BME280;15244;49.088;11.886;2023-05-01T10:17:33;95582.28;;;17.65;38.12
27425;BME280;15244;49.088;11.886;2023-05-01T10:22:39;95578.47;;;17.75;37.96
27425;BME280;15244;49.088;11.886;2023-05-01T10:27:49;95579.09;;;17.83;37.80
27425;BME280;15244;49.088;11.886;2023-05-01T10:32:54;95579.69;;;17.91;37.03
27425;BME280;15244;49.088;11.886;2023-05-01T10:38:10;95578.63;;;18.01;37.26
27425;BME280;15244;49.088;11.886;2023-05-01T10:43:22;95577.63;;;18.08;37.37
27425;BME280;15244;49.088;11.886;2023-05-01T10:53:41;95575.25;;;18.23;37.24
27425;BME280;15244;49.088;11.886;2023-05-01T10:58:54;95574.28;;;18.29;37.31
27425;BME280;15244;49.088;11.886;2023-05-01T11:09:35;95556.44;;;18.47;37.26
27425;BME280;15244;49.088;11.886;2023-05-01T11:20:06;95556.13;;;18.70;37.08
27425;BME280;15244;49.088;11.886;2023-05-01T11:25:21;95549.53;;;18.80;37.14
27425;BME280;15244;49.088;11.886;2023-05-01T11:30:38;95548.66;;;18.83;36.59
27425;BME280;15244;49.088;11.886;2023-05-01T11:35:43;95543.47;;;18.86;36.54
27425;BME280;15244;49.088;11.886;2023-05-01T11:40:52;95531.84;;;18.91;36.53
27425;BME280;15244;49.088;11.886;2023-05-01T11:45:56;95530.09;;;18.97;35.89
27425;BME280;15244;49.088;11.886;2023-05-01T11:51:13;95538.59;;;19.02;36.51
27425;BME280;15244;49.088;11.886;2023-05-01T11:56:20;95538.38;;;19.10;36.64
27425;BME280;15244;49.088;11.886;2023-05-01T12:01:34;95528.09;;;19.10;36.27
27425;BME280;15244;49.088;11.886;2023-05-01T12:06:41;95528.53;;;19.09;35.86
27425;BME280;15244;49.088;11.886;2023-05-01T12:11:50;95528.44;;;19.12;35.83
27425;BME280;15244;49.088;11.886;2023-05-01T12:16:53;95520.00;;;19.16;35.82
27425;BME280;15244;49.088;11.886;2023-05-01T12:22:06;95524.34;;;19.17;35.83
27425;BME280;15244;49.088;11.886;2023-05-01T12:27:11;95519.03;;;19.10;35.80
27425;BME280;15244;49.088;11.886;2023-05-01T12:32:18;95518.38;;;19.05;35.79
27425;BME280;15244;49.088;11.886;2023-05-01T12:37:29;95518.78;;;19.04;35.77
27425;BME280;15244;49.088;11.886;2023-05-01T12:42:35;95515.72;;;19.02;35.79
27425;BME280;15244;49.088;11.886;2023-05-01T12:47:43;95516.59;;;18.99;35.81
27425;BME280;15244;49.088;11.886;2023-05-01T12:52:48;95523.78;;;18.96;36.08
27425;BME280;15244;49.088;11.886;2023-05-01T12:57:53;95516.38;;;18.93;36.10
27425;BME280;15244;49.088;11.886;2023-05-01T13:03:01;95510.44;;;18.82;36.21
27425;BME280;15244;49.088;11.886;2023-05-01T13:08:09;95516.06;;;18.78;36.29
27425;BME280;15244;49.088;11.886;2023-05-01T13:13:22;95509.41;;;18.63;36.88
27425;BME280;15244;49.088;11.886;2023-05-01T13:18:24;95509.19;;;18.45;37.83
27425;BME280;15244;49.088;11.886;2023-05-01T13:23:26;95510.03;;;18.29;38.63
27425;BME280;15244;49.088;11.886;2023-05-01T13:28:28;95514.88;;;18.12;39.48
27425;BME280;15244;49.088;11.886;2023-05-01T13:33:30;95520.31;;;17.86;40.46
27425;BME280;15244;49.088;11.886;2023-05-01T13:38:40;95522.66;;;17.71;41.02
27425;BME280;15244;49.088;11.886;2023-05-01T13:43:43;95517.94;;;17.55;41.65
27425;BME280;15244;49.088;11.886;2023-05-01T13:48:45;95521.59;;;17.52;42.15
27425;BME280;15244;49.088;11.886;2023-05-01T13:53:47;95523.81;;;17.41;43.00
27425;BME280;15244;49.088;11.886;2023-05-01T13:58:49;95514.03;;;17.24;43.37
27425;BME280;15244;49.088;11.886;2023-05-01T14:03:53;95515.94;;;17.10;44.06
27425;BME280;15244;49.088;11.886;2023-05-01T14:08:58;95506.72;;;17.01;44.44
27425;BME280;15244;49.088;11.886;2023-05-01T14:14:04;95525.06;;;16.91;45.07
27425;BME280;15244;49.088;11.886;2023-05-01T14:19:06;95519.81;;;16.80;45.14
27425;BME280;15244;49.088;11.886;2023-05-01T14:24:09;95516.34;;;16.76;45.79
27425;BME280;15244;49.088;11.886;2023-05-01T14:29:16;95524.25;;;16.74;45.70
27425;BME280;15244;49.088;11.886;2023-05-01T14:34:22;95520.28;;;16.75;45.58
27425;BME280;15244;49.088;11.886;2023-05-01T14:39:25;95537.06;;;16.64;45.68
27425;BME280;15244;49.088;11.886;2023-05-01T14:44:27;95535.72;;;16.53;45.53
27425;BME280;15244;49.088;11.886;2023-05-01T14:49:30;95528.44;;;16.46;46.11
27425;BME280;15244;49.088;11.886;2023-05-01T14:54:44;95527.13;;;16.51;46.28
27425;BME280;15244;49.088;11.886;2023-05-01T14:59:47;95522.75;;;16.53;46.28
27425;BME280;15244;49.088;11.886;2023-05-01T15:04:48;95531.28;;;16.59;46.06
27425;BME280;15244;49.088;11.886;2023-05-01T15:09:51;95529.38;;;16.56;46.31
27425;BME280;15244;49.088;11.886;2023-05-01T15:14:52;95532.56;;;16.54;46.74
27425;BME280;15244;49.088;11.886;2023-05-01T15:19:54;95539.88;;;16.61;46.71
27425;BME280;15244;49.088;11.886;2023-05-01T15:24:56;95540.66;;;16.61;46.90
27425;BME280;15244;49.088;11.886;2023-05-01T15:29:58;95546.22;;;16.58;47.01
27425;BME280;15244;49.088;11.886;2023-05-01T15:34:59;95549.13;;;16.51;46.67
27425;BME280;15244;49.088;11.886;2023-05-01T15:40:01;95548.88;;;16.45;46.95
27425;BME280;15244;49.088;11.886;2023-05-01T15:45:05;95546.47;;;16.47;46.79
27425;BME280;15244;49.088;11.886;2023-05-01T15:50:09;95545.72;;;16.46;46.63
27425;BME280;15244;49.088;11.886;2023-05-01T15:55:15;95546.81;;;16.49;46.78
27425;BME280;15244;49.088;11.886;2023-05-01T16:00:16;95544.06;;;16.49;46.55
27425;BME280;15244;49.088;11.886;2023-05-01T16:05:19;95552.38;;;16.45;46.63
27425;BME280;15244;49.088;11.886;2023-05-01T16:10:24;95548.88;;;16.45;46.62
27425;BME280;15244;49.088;11.886;2023-05-01T16:15:26;95547.94;;;16.52;46.44
27425;BME280;15244;49.088;11.886;2023-05-01T16:20:34;95549.34;;;16.60;46.34
27425;BME280;15244;49.088;11.886;2023-05-01T16:25:42;95557.94;;;16.62;46.17
27425;BME280;15244;49.088;11.886;2023-05-01T16:30:44;95554.44;;;16.61;46.11
27425;BME280;15244;49.088;11.886;2023-05-01T16:35:48;95557.59;;;16.60;46.08
27425;BME280;15244;49.088;11.886;2023-05-01T16:40:53;95549.25;;;16.63;46.28
27425;BME280;15244;49.088;11.886;2023-05-01T16:45:56;95539.19;;;16.73;46.10
27425;BME280;15244;49.088;11.886;2023-05-01T16:50:58;95545.84;;;16.76;45.97
27425;BME280;15244;49.088;11.886;2023-05-01T16:56:00;95546.63;;;16.76;45.91
27425;BME280;15244;49.088;11.886;2023-05-01T17:01:02;95554.81;;;16.80;45.62
27425;BME280;15244;49.088;11.886;2023-05-01T17:06:04;95556.44;;;16.77;45.88
27425;BME280;15244;49.088;11.886;2023-05-01T17:11:06;95557.59;;;16.80;45.60
27425;BME280;15244;49.088;11.886;2023-05-01T17:16:08;95563.84;;;16.80;45.83
27425;BME280;15244;49.088;11.886;2023-05-01T17:21:09;95566.59;;;16.80;45.88
27425;BME280;15244;49.088;11.886;2023-05-01T17:26:12;95571.41;;;16.76;45.40
27425;BME280;15244;49.088;11.886;2023-05-01T17:31:16;95568.81;;;16.69;46.20
27425;BME280;15244;49.088;11.886;2023-05-01T17:36:21;95567.25;;;16.68;46.08
27425;BME280;15244;49.088;11.886;2023-05-01T17:41:24;95570.69;;;16.72;45.90
27425;BME280;15244;49.088;11.886;2023-05-01T17:46:26;95575.78;;;16.74;45.92
27425;BME280;15244;49.088;11.886;2023-05-01T17:51:28;95581.28;;;16.74;45.76
27425;BME280;15244;49.088;11.886;2023-05-01T17:56:30;95577.31;;;16.75;45.90
27425;BME280;15244;49.088;11.886;2023-05-01T18:01:32;95581.22;;;16.77;45.54
27425;BME280;15244;49.088;11.886;2023-05-01T18:06:35;95585.59;;;16.75;46.00
27425;BME280;15244;49.088;11.886;2023-05-01T18:11:37;95590.31;;;16.74;45.97
27425;BME280;15244;49.088;11.886;2023-05-01T18:16:39;95598.22;;;16.72;46.18
27425;BME280;15244;49.088;11.886;2023-05-01T18:21:42;95600.63;;;16.70;46.04
27425;BME280;15244;49.088;11.886;2023-05-01T18:26:44;95608.19;;;16.66;46.14
27425;BME280;15244;49.088;11.886;2023-05-01T18:31:46;95605.16;;;16.60;46.25
27425;BME280;15244;49.088;11.886;2023-05-01T18:36:48;95610.75;;;16.57;46.38
27425;BME280;15244;49.088;11.886;2023-05-01T18:41:53;95616.75;;;16.52;46.22
27425;BME280;15244;49.088;11.886;2023-05-01T18:46:55;95619.22;;;16.46;46.53
27425;BME280;15244;49.088;11.886;2023-05-01T18:51:56;95629.94;;;16.40;46.54
27425;BME280;15244;49.088;11.886;2023-05-01T18:56:58;95635.16;;;16.35;46.93
27425;BME280;15244;49.088;11.886;2023-05-01T19:02:00;95645.88;;;16.29;46.92
27425;BME280;15244;49.088;11.886;2023-05-01T19:07:03;95658.94;;;16.25;46.91
27425;BME280;15244;49.088;11.886;2023-05-01T19:12:06;95662.97;;;16.20;47.11
27425;BME280;15244;49.088;11.886;2023-05-01T19:17:12;95665.75;;;16.17;47.37
27425;BME280;15244;49.088;11.886;2023-05-01T19:22:14;95666.97;;;16.16;47.65
27425;BME280;15244;49.088;11.886;2023-05-01T19:27:17;95662.28;;;16.13;47.91
27425;BME280;15244;49.088;11.886;2023-05-01T19:32:18;95674.91;;;16.10;48.18
27425;BME280;15244;49.088;11.886;2023-05-01T19:37:21;95684.78;;;16.08;48.19
27425;BME280;15244;49.088;11.886;2023-05-01T19:42:22;95676.19;;;16.06;48.29
27425;BME280;15244;49.088;11.886;2023-05-01T19:47:24;95683.72;;;16.01;48.43
27425;BME280;15244;49.088;11.886;2023-05-01T19:52:26;95687.38;;;15.95;48.54
27425;BME280;15244;49.088;11.886;2023-05-01T19:57:28;95698.06;;;15.89;48.50
27425;BME280;15244;49.088;11.886;2023-05-01T20:02:29;95693.13;;;15.80;48.75
27425;BME280;15244;49.088;11.886;2023-05-01T20:07:31;95702.69;;;15.72;49.11
27425;BME280;15244;49.088;11.886;2023-05-01T20:12:34;95704.22;;;15.73;49.17
27425;BME280;15244;49.088;11.886;2023-05-01T20:17:36;95706.63;;;15.71;49.25
27425;BME280;15244;49.088;11.886;2023-05-01T20:22:38;95714.09;;;15.67;49.39
27425;BME280;15244;49.088;11.886;2023-05-01T20:27:40;95716.06;;;15.67;49.47
27425;BME280;15244;49.088;11.886;2023-05-01T20:32:42;95715.38;;;15.63;49.48
27425;BME280;15244;49.088;11.886;2023-05-01T20:37:44;95718.16;;;15.59;49.34
27425;BME280;15244;49.088;11.886;2023-05-01T20:42:46;95721.81;;;15.52;49.37
27425;BME280;15244;49.088;11.886;2023-05-01T20:47:48;95717.13;;;15.49;49.62
27425;BME280;15244;49.088;11.886;2023-05-01T20:52:50;95722.31;;;15.44;49.37
27425;BME280;15244;49.088;11.886;2023-05-01T20:57:52;95721.19;;;15.41;49.51
27425;BME280;15244;49.088;11.886;2023-05-01T21:02:53;95717.72;;;15.37;49.42
27425;BME280;15244;49.088;11.886;2023-05-01T21:07:58;95726.75;;;15.34;49.20
27425;BME280;15244;49.088;11.886;2023-05-01T21:13:00;95719.78;;;15.29;49.70
27425;BME280;15244;49.088;11.886;2023-05-01T21:18:02;95733.56;;;15.26;49.30
27425;BME280;15244;49.088;11.886;2023-05-01T21:23:06;95740.66;;;15.23;49.26
27425;BME280;15244;49.088;11.886;2023-05-01T21:28:11;95751.28;;;15.21;49.33
27425;BME280;15244;49.088;11.886;2023-05-01T21:33:14;95749.34;;;15.18;49.55
27425;BME280;15244;49.088;11.886;2023-05-01T21:38:17;95752.94;;;15.15;49.43
27425;BME280;15244;49.088;11.886;2023-05-01T21:43:19;95761.19;;;15.11;49.38
27425;BME280;15244;49.088;11.886;2023-05-01T21:48:21;95769.44;;;15.11;49.46
27425;BME280;15244;49.088;11.886;2023-05-01T21:53:22;95763.59;;;15.09;49.41
27425;BME280;15244;49.088;11.886;2023-05-01T21:58:26;95762.47;;;15.07;49.45
27425;BME280;15244;49.088;11.886;2023-05-01T22:03:28;95766.81;;;15.04;49.38
27425;BME280;15244;49.088;11.886;2023-05-01T22:08:30;95769.56;;;15.04;49.53
27425;BME280;15244;49.088;11.886;2023-05-01T22:13:31;95769.19;;;15.02;49.72
27425;BME280;15244;49.088;11.886;2023-05-01T22:18:33;95771.56;;;15.00;49.50
27425;BME280;15244;49.088;11.886;2023-05-01T22:23:35;95771.19;;;14.98;49.57
27425;BME280;15244;49.088;11.886;2023-05-01T22:28:36;95768.50;;;14.94;49.66
27425;BME280;15244;49.088;11.886;2023-05-01T22:33:39;95775.56;;;14.92;49.87
27425;BME280;15244;49.088;11.886;2023-05-01T22:38:41;95779.16;;;14.89;49.88
27425;BME280;15244;49.088;11.886;2023-05-01T22:43:43;95780.75;;;14.86;50.23
27425;BME280;15244;49.088;11.886;2023-05-01T22:48:44;95773.75;;;14.82;49.91
27425;BME280;15244;49.088;11.886;2023-05-01T22:53:46;95780.06;;;14.79;49.83
27425;BME280;15244;49.088;11.886;2023-05-01T22:58:47;95777.34;;;14.75;49.95
27425;BME280;15244;49.088;11.886;2023-05-01T23:03:49;95785.63;;;14.71;49.90
27425;BME280;15244;49.088;11.886;2023-05-01T23:08:51;95784.88;;;14.67;49.98
27425;BME280;15244;49.088;11.886;2023-05-01T23:13:54;95791.56;;;14.63;50.07
27425;BME280;15244;49.088;11.886;2023-05-01T23:18:55;95788.88;;;14.59;50.06
27425;BME280;15244;49.088;11.886;2023-05-01T23:23:57;95794.38;;;14.56;50.02
27425;BME280;15244;49.088;11.886;2023-05-01T23:29:04;95786.22;;;14.48;50.10
27425;BME280;15244;49.088;11.886;2023-05-01T23:34:06;95794.47;;;14.45;50.39
27425;BME280;15244;49.088;11.886;2023-05-01T23:39:08;95784.72;;;14.40;50.53
27425;BME280;15244;49.088;11.886;2023-05-01T23:44:09;95785.97;;;14.36;50.56
27425;BME280;15244;49.088;11.886;2023-05-01T23:49:11;95787.94;;;14.31;50.64
27425;BME280;15244;49.088;11.886;2023-05-01T23:54:13;95786.41;;;14.27;50.69
27425;BME280;15244;49.088;11.886;2023-05-01T23:59:14;95793.09;;;14.22;50.76
